createdAt,value
2019-03-28T00:00:02.967Z,5.33
2019-03-28T00:02:33.469Z,5.67
2019-03-28T00:05:02.515Z,5.47
2019-03-28T00:07:31.406Z,4.77
2019-03-28T00:10:00.332Z,5.23
2019-03-28T00:12:29.193Z,5.33
2019-03-28T00:14:58.698Z,5.12
2019-03-28T00:17:27.583Z,5.73
2019-03-28T00:19:56.695Z,5.10
2019-03-28T00:22:35.003Z,4.63
2019-03-28T00:25:07.315Z,4.62
2019-03-28T00:27:36.210Z,5.27
2019-03-28T00:30:05.224Z,4.60
2019-03-28T00:32:34.271Z,4.58
2019-03-28T00:35:03.194Z,5.20
2019-03-28T00:37:32.073Z,4.30
2019-03-28T00:40:01.423Z,4.53
2019-03-28T00:42:30.327Z,4.27
2019-03-28T00:44:59.215Z,5.28
2019-03-28T00:47:28.115Z,4.77
2019-03-28T00:49:56.999Z,5.63
2019-03-28T00:52:25.883Z,6.67
2019-03-28T00:54:54.775Z,5.58
2019-03-28T00:57:23.667Z,6.37
2019-03-28T00:59:52.567Z,7.50
2019-03-28T01:02:21.528Z,7.55
2019-03-28T01:04:50.443Z,6.47
2019-03-28T01:07:19.331Z,6.33
2019-03-28T01:09:49.619Z,7.05
2019-03-28T01:12:18.507Z,6.62
2019-03-28T01:14:47.502Z,5.95
2019-03-28T01:17:16.387Z,6.37
2019-03-28T01:19:45.344Z,5.40
2019-03-28T01:22:14.299Z,5.63
2019-03-28T01:24:43.183Z,5.87
2019-03-28T01:27:12.102Z,6.53
2019-03-28T01:29:40.981Z,5.77
2019-03-28T01:32:09.881Z,7.13
2019-03-28T01:34:38.787Z,7.57
2019-03-28T01:37:07.679Z,8.13
2019-03-28T01:39:36.570Z,6.43
2019-03-28T01:42:06.158Z,6.60
2019-03-28T01:44:35.148Z,7.10
2019-03-28T01:47:04.027Z,7.92
2019-03-28T01:49:32.911Z,8.00
2019-03-28T01:52:04.253Z,8.70
2019-03-28T01:54:32.691Z,9.10
2019-03-28T01:57:10.725Z,8.48
2019-03-28T01:59:33.092Z,7.53
2019-03-28T02:02:02.272Z,9.00
2019-03-28T02:04:31.223Z,6.67
2019-03-28T02:07:00.130Z,7.47
2019-03-28T02:09:29.019Z,8.00
2019-03-28T02:11:57.899Z,8.07
2019-03-28T02:14:26.895Z,7.27
2019-03-28T02:16:55.788Z,7.40
2019-03-28T02:19:25.527Z,7.67
2019-03-28T02:21:54.440Z,7.85
2019-03-28T02:24:23.319Z,7.60
2019-03-28T02:26:52.224Z,7.63
2019-03-28T02:29:21.851Z,8.95
2019-03-28T02:31:50.907Z,9.00
2019-03-28T02:34:19.795Z,8.33
2019-03-28T02:36:48.702Z,8.37
2019-03-28T02:39:17.590Z,9.20
2019-03-28T02:41:46.479Z,8.53
2019-03-28T02:44:15.368Z,7.90
2019-03-28T02:46:44.253Z,9.13
2019-03-28T02:49:13.167Z,8.40
2019-03-28T02:51:42.057Z,8.25
2019-03-28T02:54:10.942Z,8.13
2019-03-28T02:56:39.852Z,8.97
2019-03-28T02:59:08.752Z,7.40
2019-03-28T03:01:37.640Z,7.33
2019-03-28T03:04:06.543Z,8.33
2019-03-28T03:06:35.459Z,7.53
2019-03-28T03:09:06.057Z,7.20
2019-03-28T03:11:35.826Z,8.03
2019-03-28T03:14:06.623Z,7.30
2019-03-28T03:16:35.599Z,7.80
2019-03-28T03:19:04.591Z,8.00
2019-03-28T03:21:35.907Z,8.40
2019-03-28T03:24:05.152Z,8.10
2019-03-28T03:26:35.153Z,7.67
2019-03-28T03:29:04.186Z,9.23
2019-03-28T03:31:33.186Z,11.57
2019-03-28T03:34:02.363Z,9.37
2019-03-28T03:36:31.315Z,9.08
2019-03-28T03:39:00.302Z,8.10
2019-03-28T03:41:29.327Z,7.67
2019-03-28T03:43:58.348Z,7.57
2019-03-28T03:46:27.890Z,8.70
2019-03-28T03:48:56.930Z,8.60
2019-03-28T03:51:25.968Z,8.17
2019-03-28T03:53:55.035Z,8.77
2019-03-28T03:56:24.085Z,8.58
2019-03-28T03:58:53.151Z,8.33
2019-03-28T04:01:22.168Z,8.80
2019-03-28T04:03:51.524Z,8.70
2019-03-28T04:06:20.506Z,9.80
2019-03-28T04:08:49.387Z,9.80
2019-03-28T04:11:18.283Z,9.63
2019-03-28T04:13:47.162Z,9.17
2019-03-28T04:16:16.080Z,10.30
2019-03-28T04:18:44.974Z,9.75
2019-03-28T04:21:13.852Z,9.03
2019-03-28T04:23:42.824Z,8.75
2019-03-28T04:26:11.749Z,8.48
2019-03-28T04:28:40.720Z,9.03
2019-03-28T04:31:09.594Z,8.53
2019-03-28T04:33:38.507Z,10.20
2019-03-28T04:36:07.391Z,9.43
2019-03-28T04:38:36.285Z,8.63
2019-03-28T04:41:05.185Z,9.43
2019-03-28T04:43:34.099Z,9.65
2019-03-28T04:46:02.980Z,9.37
2019-03-28T04:48:31.935Z,9.37
2019-03-28T04:51:01.566Z,9.80
2019-03-28T04:53:30.448Z,10.73
2019-03-28T04:55:59.355Z,9.98
2019-03-28T04:58:28.235Z,10.83
2019-03-28T05:00:59.886Z,10.60
2019-03-28T05:03:28.771Z,10.82
2019-03-28T05:05:58.434Z,10.00
2019-03-28T05:08:27.359Z,11.37
2019-03-28T05:10:56.271Z,12.00
2019-03-28T05:13:26.130Z,10.77
2019-03-28T05:15:55.052Z,9.33
2019-03-28T05:18:23.935Z,11.07
2019-03-28T05:20:52.835Z,10.90
2019-03-28T05:23:21.738Z,10.33
2019-03-28T05:25:50.635Z,9.77
2019-03-28T05:28:19.536Z,10.75
2019-03-28T05:30:48.427Z,10.60
2019-03-28T05:33:17.378Z,9.90
2019-03-28T05:35:46.430Z,10.93
2019-03-28T05:38:15.328Z,9.65
2019-03-28T05:40:44.231Z,9.25
2019-03-28T05:43:13.107Z,9.68
2019-03-28T05:45:42.020Z,10.35
2019-03-28T05:48:10.963Z,9.20
2019-03-28T05:50:39.880Z,10.03
2019-03-28T05:53:08.778Z,10.20
2019-03-28T05:55:38.779Z,10.18
2019-03-28T05:58:09.726Z,9.77
2019-03-28T06:00:39.076Z,10.88
2019-03-28T06:03:09.003Z,11.45
2019-03-28T06:05:37.995Z,9.23
2019-03-28T06:08:06.883Z,11.57
2019-03-28T06:10:36.455Z,12.60
2019-03-28T06:13:05.541Z,11.78
2019-03-28T06:15:34.466Z,13.30
2019-03-28T06:18:03.355Z,12.35
2019-03-28T06:20:32.239Z,12.40
2019-03-28T06:23:01.143Z,11.78
2019-03-28T06:25:30.044Z,11.33
2019-03-28T06:27:59.363Z,12.15
2019-03-28T06:30:28.335Z,14.90
2019-03-28T06:32:58.886Z,12.97
2019-03-28T06:35:28.139Z,13.75
2019-03-28T06:37:57.019Z,15.17
2019-03-28T06:40:25.923Z,14.85
2019-03-28T06:42:54.835Z,14.53
2019-03-28T06:45:23.732Z,15.88
2019-03-28T06:47:52.671Z,15.47
2019-03-28T06:50:21.587Z,13.98
2019-03-28T06:52:50.486Z,15.83
2019-03-28T06:55:19.388Z,14.67
2019-03-28T06:57:48.288Z,14.97
2019-03-28T07:00:17.187Z,15.10
2019-03-28T07:02:46.075Z,15.43
2019-03-28T07:05:15.147Z,16.55
2019-03-28T07:07:45.111Z,14.95
2019-03-28T07:10:14.099Z,15.43
2019-03-28T07:12:44.296Z,16.95
2019-03-28T07:15:13.318Z,15.17
2019-03-28T07:17:42.212Z,17.32
2019-03-28T07:20:11.113Z,15.77
2019-03-28T07:22:39.999Z,15.70
2019-03-28T07:25:09.025Z,14.30
2019-03-28T07:27:37.911Z,15.83
2019-03-28T07:30:07.883Z,14.85
2019-03-28T07:32:38.598Z,13.90
2019-03-28T07:35:07.586Z,15.30
2019-03-28T07:37:36.480Z,15.30
2019-03-28T07:40:05.825Z,15.77
2019-03-28T07:42:34.707Z,14.73
2019-03-28T07:45:05.368Z,14.47
2019-03-28T07:47:34.428Z,13.70
2019-03-28T07:50:03.324Z,15.77
2019-03-28T07:52:32.291Z,15.63
2019-03-28T07:55:01.199Z,13.77
2019-03-28T07:57:30.167Z,13.60
2019-03-28T08:00:04.494Z,13.47
2019-03-28T08:02:30.579Z,12.77
2019-03-28T08:05:01.454Z,13.63
2019-03-28T08:07:30.271Z,14.05
2019-03-28T08:09:59.195Z,13.13
2019-03-28T08:12:28.091Z,13.48
2019-03-28T08:14:56.979Z,13.83
2019-03-28T08:17:25.891Z,12.18
2019-03-28T08:19:54.803Z,10.43
2019-03-28T08:22:23.707Z,11.15
2019-03-28T08:24:52.595Z,8.78
2019-03-28T08:27:21.515Z,9.60
2019-03-28T08:29:51.359Z,7.37
2019-03-28T08:32:23.731Z,7.87
2019-03-28T08:34:52.623Z,8.60
2019-03-28T08:37:21.786Z,8.17
2019-03-28T08:39:50.692Z,9.10
2019-03-28T08:42:19.701Z,7.77
2019-03-28T08:44:48.665Z,8.15
2019-03-28T08:47:17.574Z,7.00
2019-03-28T08:49:46.455Z,6.03
2019-03-28T08:52:15.438Z,6.87
2019-03-28T08:54:44.322Z,7.22
2019-03-28T08:57:13.852Z,8.53
2019-03-28T08:59:42.711Z,8.60
2019-03-28T09:02:11.896Z,7.75
2019-03-28T09:04:40.823Z,6.83
2019-03-28T09:07:09.790Z,6.72
2019-03-28T09:09:38.753Z,6.30
2019-03-28T09:12:07.651Z,7.50
2019-03-28T09:14:36.695Z,8.03
2019-03-28T09:17:05.699Z,6.67
2019-03-28T09:19:34.634Z,7.55
2019-03-28T09:22:03.513Z,8.70
2019-03-28T09:24:33.011Z,9.63
2019-03-28T09:27:01.923Z,8.83
2019-03-28T09:29:30.816Z,8.23
2019-03-28T09:31:59.719Z,9.63
2019-03-28T09:34:28.621Z,7.67
2019-03-28T09:36:57.516Z,9.43
2019-03-28T09:39:26.403Z,7.70
2019-03-28T09:41:55.296Z,5.33
2019-03-28T09:44:24.204Z,3.83
2019-03-28T09:46:53.083Z,6.47
2019-03-28T09:49:21.978Z,6.73
2019-03-28T09:51:50.891Z,6.13
2019-03-28T09:54:19.809Z,3.72
2019-03-28T09:56:48.699Z,4.22
2019-03-28T09:59:17.605Z,4.33
2019-03-28T10:01:46.495Z,4.50
2019-03-28T10:04:15.386Z,3.30
2019-03-28T10:06:44.295Z,3.50
2019-03-28T10:09:13.182Z,3.75
2019-03-28T10:11:42.075Z,4.15
2019-03-28T10:14:10.969Z,3.47
2019-03-28T10:16:40.405Z,3.53
2019-03-28T10:19:09.339Z,3.00
2019-03-28T10:21:38.243Z,2.95
2019-03-28T10:24:07.127Z,3.10
2019-03-28T10:26:36.259Z,2.75
2019-03-28T10:29:05.213Z,2.42
2019-03-28T10:31:34.043Z,3.72
2019-03-28T10:34:02.940Z,3.70
2019-03-28T10:36:31.848Z,2.93
2019-03-28T10:39:00.731Z,3.33
2019-03-28T10:41:30.375Z,2.80
2019-03-28T10:43:59.283Z,3.30
2019-03-28T10:46:28.171Z,3.40
2019-03-28T10:48:57.519Z,3.62
2019-03-28T10:51:26.407Z,3.57
2019-03-28T10:53:56.255Z,3.77
2019-03-28T10:56:25.176Z,4.27
2019-03-28T10:58:54.055Z,4.30
2019-03-28T11:01:41.717Z,4.20
2019-03-28T11:03:54.727Z,4.03
2019-03-28T11:06:23.615Z,4.93
2019-03-28T11:08:52.539Z,5.43
2019-03-28T11:11:22.488Z,4.97
2019-03-28T11:13:51.427Z,4.97
2019-03-28T11:16:20.320Z,5.25
2019-03-28T11:18:49.199Z,5.15
2019-03-28T11:21:18.415Z,5.67
2019-03-28T11:23:47.328Z,5.33
2019-03-28T11:26:16.235Z,6.15
2019-03-28T11:28:45.134Z,5.50
2019-03-28T11:31:14.033Z,6.37
2019-03-28T11:33:42.907Z,5.87
2019-03-28T11:36:11.815Z,5.90
2019-03-28T11:38:40.687Z,4.40
2019-03-28T11:41:09.591Z,4.63
2019-03-28T11:43:38.499Z,2.03
2019-03-28T11:46:07.415Z,4.95
2019-03-28T11:48:36.311Z,6.10
2019-03-28T11:51:05.295Z,4.67
2019-03-28T11:53:34.176Z,5.10
2019-03-28T11:56:04.099Z,5.00
2019-03-28T11:58:33.491Z,5.25
2019-03-28T12:01:02.380Z,4.67
2019-03-28T12:03:31.272Z,4.87
2019-03-28T12:06:00.167Z,5.43
2019-03-28T12:08:29.046Z,5.30
2019-03-28T12:10:57.936Z,5.57
2019-03-28T12:13:26.847Z,5.80
2019-03-28T12:15:55.725Z,6.40
2019-03-28T12:18:25.184Z,5.67
2019-03-28T12:20:54.228Z,6.78
2019-03-28T12:23:23.111Z,5.33
2019-03-28T12:25:52.680Z,6.87
2019-03-28T12:28:21.595Z,6.20
2019-03-28T12:30:50.476Z,6.55
2019-03-28T12:33:19.391Z,8.25
2019-03-28T12:35:48.272Z,7.53
2019-03-28T12:38:17.170Z,7.23
2019-03-28T12:40:46.078Z,6.57
2019-03-28T12:43:14.963Z,6.17
2019-03-28T12:45:43.863Z,6.80
2019-03-28T12:48:12.760Z,6.73
2019-03-28T12:50:41.639Z,5.90
2019-03-28T12:53:11.013Z,5.03
2019-03-28T12:55:39.927Z,4.43
2019-03-28T12:58:08.823Z,5.30
2019-03-28T13:00:37.868Z,4.30
2019-03-28T13:03:07.027Z,4.58
2019-03-28T13:05:35.935Z,4.73
2019-03-28T13:08:05.037Z,3.70
2019-03-28T13:10:33.935Z,4.47
2019-03-28T13:13:03.824Z,4.83
2019-03-28T13:15:33.552Z,4.20
2019-03-28T13:18:02.447Z,3.60
2019-03-28T13:20:31.367Z,3.87
2019-03-28T13:23:00.275Z,4.10
2019-03-28T13:25:29.184Z,3.87
2019-03-28T13:27:58.135Z,3.80
2019-03-28T13:30:27.983Z,3.70
2019-03-28T13:32:56.871Z,3.55
2019-03-28T13:35:25.763Z,3.27
2019-03-28T13:37:54.670Z,3.47
2019-03-28T13:40:23.551Z,3.77
2019-03-28T13:42:53.252Z,3.62
2019-03-28T13:45:22.175Z,3.40
2019-03-28T13:47:54.142Z,3.33
2019-03-28T13:50:21.831Z,3.17
2019-03-28T13:52:50.715Z,2.62
2019-03-28T13:55:19.634Z,3.70
2019-03-28T13:57:48.515Z,2.83
2019-03-28T14:00:18.884Z,2.70
2019-03-28T14:02:55.872Z,3.33
2019-03-28T14:05:18.858Z,3.25
2019-03-28T14:07:47.987Z,3.55
2019-03-28T14:10:17.322Z,4.00
2019-03-28T14:12:46.244Z,3.95
2019-03-28T14:15:15.115Z,3.93
2019-03-28T14:17:44.003Z,4.27
2019-03-28T14:20:13.031Z,4.60
2019-03-28T14:22:41.912Z,4.22
2019-03-28T14:25:10.895Z,3.58
2019-03-28T14:27:39.768Z,5.33
2019-03-28T14:30:09.767Z,3.77
2019-03-28T14:32:52.076Z,4.13
2019-03-28T14:35:09.331Z,4.58
2019-03-28T14:37:40.625Z,4.87
2019-03-28T14:40:08.951Z,4.40
2019-03-28T14:42:38.315Z,4.95
2019-03-28T14:45:07.465Z,5.30
2019-03-28T14:47:36.363Z,4.30
2019-03-28T14:50:06.011Z,5.33
2019-03-28T14:52:35.323Z,4.97
2019-03-28T14:55:05.526Z,4.93
2019-03-28T14:57:37.879Z,5.97
2019-03-28T15:00:07.406Z,5.67
2019-03-28T15:02:36.351Z,5.97
2019-03-28T15:05:05.763Z,6.25
2019-03-28T15:07:34.822Z,6.23
2019-03-28T15:10:04.166Z,5.73
2019-03-28T15:12:33.360Z,5.75
2019-03-28T15:15:02.332Z,5.67
2019-03-28T15:17:31.215Z,6.03
2019-03-28T15:20:00.261Z,6.20
2019-03-28T15:22:29.248Z,5.00
2019-03-28T15:24:58.130Z,5.42
2019-03-28T15:27:27.051Z,5.57
2019-03-28T15:29:55.939Z,6.30
2019-03-28T15:32:24.819Z,5.90
2019-03-28T15:34:53.720Z,5.60
2019-03-28T15:37:22.599Z,7.15
2019-03-28T15:39:51.547Z,6.60
2019-03-28T15:42:21.426Z,6.93
2019-03-28T15:44:50.312Z,6.40
2019-03-28T15:47:19.203Z,6.77
2019-03-28T15:49:48.098Z,6.90
2019-03-28T15:52:16.983Z,6.33
2019-03-28T15:54:45.911Z,7.10
2019-03-28T15:57:14.808Z,7.13
2019-03-28T15:59:43.695Z,6.90
2019-03-28T16:02:12.599Z,6.47
2019-03-28T16:04:41.491Z,6.30
2019-03-28T16:07:10.399Z,6.77
2019-03-28T16:09:39.291Z,6.90
2019-03-28T16:12:08.196Z,7.03
2019-03-28T16:14:37.123Z,7.00
2019-03-28T16:17:06.010Z,6.90
2019-03-28T16:19:34.912Z,6.87
2019-03-28T16:22:04.321Z,6.50
2019-03-28T16:24:34.356Z,6.70
2019-03-28T16:27:03.283Z,6.42
2019-03-28T16:29:32.175Z,6.60
2019-03-28T16:32:01.066Z,6.33
2019-03-28T16:34:30.050Z,5.70
2019-03-28T16:36:58.932Z,5.57
2019-03-28T16:39:27.839Z,5.33
2019-03-28T16:41:56.759Z,6.92
2019-03-28T16:44:25.661Z,6.20
2019-03-28T16:46:55.527Z,5.87
2019-03-28T16:49:25.491Z,5.80
2019-03-28T16:51:54.371Z,3.55
2019-03-28T16:54:23.362Z,6.37
2019-03-28T16:56:53.713Z,5.63
2019-03-28T16:59:22.623Z,6.17
2019-03-28T17:01:51.544Z,3.60
2019-03-28T17:04:21.433Z,5.50
2019-03-28T17:06:51.445Z,5.23
2019-03-28T17:09:20.375Z,5.20
2019-03-28T17:11:49.809Z,3.87
2019-03-28T17:14:19.579Z,5.47
2019-03-28T17:16:48.491Z,5.30
2019-03-28T17:19:17.402Z,5.75
2019-03-28T17:21:46.371Z,5.20
2019-03-28T17:24:15.276Z,5.43
2019-03-28T17:26:44.151Z,5.90
2019-03-28T17:29:13.084Z,4.57
2019-03-28T17:31:41.967Z,5.43
2019-03-28T17:34:10.851Z,5.83
2019-03-28T17:36:39.751Z,4.50
2019-03-28T17:39:08.652Z,5.23
2019-03-28T17:41:37.559Z,4.97
2019-03-28T17:44:06.569Z,4.83
2019-03-28T17:46:36.203Z,4.78
2019-03-28T17:49:05.114Z,5.30
2019-03-28T17:51:34.272Z,4.28
2019-03-28T17:54:03.156Z,4.83
2019-03-28T17:56:32.147Z,4.70
2019-03-28T17:59:01.055Z,4.93
2019-03-28T18:01:29.940Z,5.58
2019-03-28T18:03:58.854Z,5.90
2019-03-28T18:06:27.803Z,5.00
2019-03-28T18:08:56.724Z,5.87
2019-03-28T18:11:25.616Z,5.47
2019-03-28T18:13:54.513Z,5.33
2019-03-28T18:16:23.431Z,6.00
2019-03-28T18:18:52.406Z,5.42
2019-03-28T18:21:21.312Z,5.20
2019-03-28T18:23:50.227Z,5.70
2019-03-28T18:26:19.130Z,4.67
2019-03-28T18:28:48.083Z,6.03
2019-03-28T18:31:16.987Z,5.70
2019-03-28T18:33:45.882Z,5.90
2019-03-28T18:36:15.502Z,6.70
2019-03-28T18:38:44.399Z,6.80
2019-03-28T18:41:13.326Z,6.93
2019-03-28T18:43:42.213Z,6.03
2019-03-28T18:46:14.503Z,6.35
2019-03-28T18:48:41.910Z,5.42
2019-03-28T18:51:10.827Z,5.80
2019-03-28T18:53:40.707Z,6.22
2019-03-28T18:56:09.599Z,6.07
2019-03-28T18:58:38.511Z,6.43
2019-03-28T19:01:08.247Z,6.33
2019-03-28T19:03:37.152Z,7.40
2019-03-28T19:06:06.072Z,6.57
2019-03-28T19:08:35.107Z,7.13
2019-03-28T19:11:04.217Z,6.23
2019-03-28T19:13:33.096Z,6.50
2019-03-28T19:16:02.259Z,5.95
2019-03-28T19:18:31.143Z,6.97
2019-03-28T19:21:00.071Z,6.53
2019-03-28T19:23:29.018Z,7.33
2019-03-28T19:25:57.946Z,6.93
2019-03-28T19:28:29.260Z,7.83
2019-03-28T19:30:57.415Z,6.93
2019-03-28T19:33:26.335Z,7.40
2019-03-28T19:35:55.431Z,7.00
2019-03-28T19:38:24.443Z,6.33
2019-03-28T19:40:53.326Z,6.72
2019-03-28T19:43:23.187Z,6.97
2019-03-28T19:45:52.163Z,6.47
2019-03-28T19:48:21.049Z,6.50
2019-03-28T19:50:49.926Z,6.97
2019-03-28T19:53:18.839Z,6.93
2019-03-28T19:55:47.721Z,7.00
2019-03-28T19:58:16.631Z,7.30
2019-03-28T20:00:45.510Z,6.10
2019-03-28T20:03:14.404Z,6.77
2019-03-28T20:05:47.847Z,6.33
2019-03-28T20:08:16.052Z,6.70
2019-03-28T20:10:45.009Z,6.63
2019-03-28T20:13:14.243Z,6.45
2019-03-28T20:15:43.303Z,7.43
2019-03-28T20:18:12.235Z,7.23
2019-03-28T20:20:41.127Z,7.70
2019-03-28T20:23:10.097Z,6.53
2019-03-28T20:25:38.979Z,7.67
2019-03-28T20:28:07.892Z,7.08
2019-03-28T20:30:36.814Z,8.10
2019-03-28T20:33:06.035Z,7.80
2019-03-28T20:35:35.081Z,7.60
2019-03-28T20:38:04.223Z,8.20
2019-03-28T20:40:33.167Z,7.80
2019-03-28T20:43:02.153Z,7.70
2019-03-28T20:45:31.057Z,8.17
2019-03-28T20:48:00.043Z,7.63
2019-03-28T20:50:31.734Z,7.87
2019-03-28T20:52:59.519Z,8.78
2019-03-28T20:55:28.427Z,7.92
2019-03-28T20:57:57.403Z,8.73
2019-03-28T21:00:36.523Z,8.33
2019-03-28T21:03:05.492Z,8.50
2019-03-28T21:05:34.382Z,8.70
2019-03-28T21:08:03.439Z,9.07
2019-03-28T21:10:33.560Z,9.33
2019-03-28T21:13:03.135Z,9.10
2019-03-28T21:15:32.027Z,8.90
2019-03-28T21:18:01.068Z,8.75
2019-03-28T21:20:30.199Z,9.70
2019-03-28T21:25:24.883Z,10.60
2019-03-28T21:27:53.788Z,10.43
2019-03-28T21:30:22.708Z,10.90
2019-03-28T21:32:55.549Z,11.03
2019-03-28T21:35:22.232Z,11.47
2019-03-28T21:37:51.139Z,10.57
2019-03-28T21:40:21.007Z,10.77
2019-03-28T21:42:49.918Z,10.53
2019-03-28T21:45:18.815Z,11.53
2019-03-28T21:47:47.705Z,11.27
2019-03-28T21:50:16.614Z,11.90
2019-03-28T21:52:45.503Z,11.17
2019-03-28T21:55:14.391Z,11.80
2019-03-28T21:57:43.298Z,12.03
2019-03-28T22:00:12.573Z,11.80
2019-03-28T22:02:41.467Z,10.88
2019-03-28T22:05:10.358Z,10.63
2019-03-28T22:07:39.343Z,11.60
2019-03-28T22:10:09.241Z,12.70
2019-03-28T22:12:38.222Z,12.13
2019-03-28T22:15:07.375Z,11.47
2019-03-28T22:17:36.366Z,11.95
2019-03-28T22:20:05.395Z,11.47
2019-03-28T22:22:34.279Z,11.33
2019-03-28T22:25:03.167Z,12.20
2019-03-28T22:27:32.076Z,11.03
2019-03-28T22:30:00.951Z,12.77
2019-03-28T22:32:29.855Z,11.73
2019-03-28T22:34:59.836Z,12.00
2019-03-28T22:37:28.894Z,12.53
2019-03-28T22:39:57.975Z,12.93
2019-03-28T22:42:27.218Z,14.05
2019-03-28T22:44:56.134Z,12.73
2019-03-28T22:47:25.032Z,12.25
2019-03-28T22:49:53.935Z,14.07
2019-03-28T22:52:22.847Z,12.63
2019-03-28T22:54:51.759Z,12.77
2019-03-28T22:57:20.658Z,13.60
2019-03-28T22:59:49.581Z,13.60
2019-03-28T23:02:19.517Z,15.20
2019-03-28T23:04:48.414Z,13.83
2019-03-28T23:07:17.328Z,13.97
2019-03-28T23:09:46.260Z,13.67
2019-03-28T23:12:15.139Z,13.40
2019-03-28T23:14:44.862Z,13.45
2019-03-28T23:17:13.749Z,13.07
2019-03-28T23:19:42.652Z,13.18
2019-03-28T23:22:11.559Z,14.00
2019-03-28T23:24:40.447Z,13.97
2019-03-28T23:27:09.351Z,13.83
2019-03-28T23:29:38.343Z,13.00
2019-03-28T23:32:08.230Z,12.98
2019-03-28T23:34:37.142Z,13.50
2019-03-28T23:37:06.386Z,13.60
2019-03-28T23:39:35.278Z,13.18
2019-03-28T23:42:04.272Z,13.20
2019-03-28T23:44:33.187Z,13.03
2019-03-28T23:47:02.078Z,13.32
2019-03-28T23:49:30.976Z,13.40
2019-03-28T23:51:59.979Z,12.33
2019-03-28T23:54:28.868Z,13.00
2019-03-28T23:56:57.770Z,13.90
2019-03-28T23:59:26.761Z,13.67
